Fuji Maru — JD2030 — position and weather

sailwx.info

Track history (hours):
 
Tides and Currents Weather Stations Pressure Air Temp Water Temp Dewpoint Dewpoint Depression Visibility Wind Speed Wind Dir Waves Ship Positions

Fuji Maru

Last reported at 2016-Jun-25 11:28 UTC. Time now 2016-Jun-25 12:32 UTC.
Position N 35°39' E 139°46'.

Length 38 m; draft 4.4 m.

Type: Tug. MMSI: 431001102.

Date/timePositionNaut miles runAvg speedWind from/ knotsBaromVisibWave heightAir tempDewpointWater temp
2016-Jun-25 11:28N 35°39' E 139°46'0 0.0
2016-Jun-25 10:31N 35°39' E 139°46'0 0.0
2016-Jun-25 09:28N 35°39' E 139°46'0 0.0
2016-Jun-25 08:22N 35°39' E 139°46'0 0.0
2016-Jun-25 07:31N 35°39' E 139°46'0 0.0
2016-Jun-25 06:28N 35°39' E 139°46'1 1.2
2016-Jun-25 05:33N 35°38' E 139°46'1 0.9
2016-Jun-25 04:23N 35°39' E 139°46'0 0.0
2016-Jun-25 03:26N 35°39' E 139°46'3 3.4
2016-Jun-25 02:32N 35°36' E 139°48'1 0.9
2016-Jun-25 01:33N 35°36' E 139°47'3 3.3
2016-Jun-25 00:33N 35°39' E 139°46'0 0.0
2016-Jun-24 23:30N 35°39' E 139°46'0 0.0
2016-Jun-24 22:33N 35°39' E 139°46'0 0.0
2016-Jun-24 21:15N 35°39' E 139°46'0 0.0
2016-Jun-24 20:33N 35°39' E 139°46'0 0.0
2016-Jun-24 19:33N 35°39' E 139°46'0 0.0
2016-Jun-24 18:33N 35°39' E 139°46'0 0.0
2016-Jun-24 17:33N 35°39' E 139°46'0 0.0
2016-Jun-24 16:33N 35°39' E 139°46'0 0.0
2016-Jun-24 15:33N 35°39' E 139°46'0 0.0
2016-Jun-24 14:33N 35°39' E 139°46'0 0.0
2016-Jun-24 13:30N 35°39' E 139°46'0 0.4
2016-Jun-24 12:33N 35°38' E 139°46'2 1.9
2016-Jun-24 11:33N 35°37' E 139°47'1 1.0
2016-Jun-24 10:31N 35°36' E 139°46'1 0.7
2016-Jun-24 09:33N 35°36' E 139°46'3 2.3
2016-Jun-24 08:26N 35°39' E 139°46'0 0.0
2016-Jun-24 07:32N 35°39' E 139°46'0 0.0
2016-Jun-24 04:32N 35°39' E 139°46'0 0.0
2016-Jun-24 03:32N 35°39' E 139°46'0 0.0
2016-Jun-24 02:23N 35°39' E 139°46'0 0.0
2016-Jun-24 01:32N 35°39' E 139°46'0 0.0
2016-Jun-24 00:32N 35°39' E 139°46'0 0.0
2016-Jun-23 23:32N 35°39' E 139°46'0 0.0
2016-Jun-23 22:32N 35°39' E 139°46'0 0.0
2016-Jun-23 21:32N 35°39' E 139°46'0 0.0
2016-Jun-23 20:29N 35°39' E 139°46'0 0.0
2016-Jun-23 19:32N 35°39' E 139°46'0 0.0
2016-Jun-23 18:32N 35°39' E 139°46'0 0.0
2016-Jun-23 17:32N 35°39' E 139°46'0 0.0
2016-Jun-23 16:32N 35°39' E 139°46'0 0.0
2016-Jun-23 15:32N 35°39' E 139°46'0 0.0
2016-Jun-23 14:32N 35°39' E 139°46'0 0.0
2016-Jun-23 13:29N 35°39' E 139°46'0 0.0
2016-Jun-23 12:32N 35°39' E 139°46'0 0.0
2016-Jun-23 11:32N 35°39' E 139°46'0 0.0
2016-Jun-23 10:32N 35°39' E 139°46'3 3.3
2016-Jun-23 09:33N 35°36' E 139°47'3 2.9
2016-Jun-23 08:33N 35°34' E 139°49'6 5.8
2016-Jun-23 07:32N 35°39' E 139°46'0 0.0
2016-Jun-23 05:29N 35°39' E 139°46'0 0.0
2016-Jun-23 04:32N 35°39' E 139°46'0 0.0
2016-Jun-23 03:32N 35°39' E 139°46'0 0.0
2016-Jun-23 02:32N 35°39' E 139°46'0 0.0
2016-Jun-23 01:32N 35°39' E 139°46'0 0.0
2016-Jun-23 00:32N 35°39' E 139°46'0 0.0
2016-Jun-22 23:32N 35°39' E 139°46'2 2.2
2016-Jun-22 22:33N 35°37' E 139°46'2 1.5
2016-Jun-22 21:33N 35°35' E 139°47'1 1.0
2016-Jun-22 20:34N 35°36' E 139°47'0 0.3
2016-Jun-22 19:31N 35°36' E 139°46'2 2.4
2016-Jun-22 18:31N 35°39' E 139°46'0 0.0
2016-Jun-22 17:28N 35°39' E 139°46'0 0.0
2016-Jun-22 16:31N 35°39' E 139°46'0 0.0
2016-Jun-22 15:31N 35°39' E 139°46'0 0.0
2016-Jun-22 14:28N 35°39' E 139°46'0 0.0
2016-Jun-22 13:31N 35°39' E 139°46'0 0.0
2016-Jun-22 12:31N 35°39' E 139°46'0 0.0
2016-Jun-22 11:31N 35°39' E 139°46'0 0.0
2016-Jun-22 10:25N 35°39' E 139°46'0 0.0
2016-Jun-22 09:22N 35°39' E 139°46'0 0.0
2016-Jun-22 08:31N 35°39' E 139°46'0 0.0
2016-Jun-22 07:31N 35°39' E 139°46'0 0.0
2016-Jun-22 06:31N 35°39' E 139°46'0 0.0
2016-Jun-22 05:31N 35°39' E 139°46'0 0.0
2016-Jun-22 04:31N 35°39' E 139°46'0 0.0
2016-Jun-22 03:31N 35°39' E 139°46'0 0.0
2016-Jun-22 02:31N 35°39' E 139°46'0 0.0
2016-Jun-22 01:31N 35°39' E 139°46'0 0.0
2016-Jun-22 00:31N 35°39' E 139°46'0 0.0
2016-Jun-21 23:31N 35°39' E 139°46'0 0.0
2016-Jun-21 22:31N 35°39' E 139°46'0 0.0
2016-Jun-21 21:31N 35°39' E 139°46'0 0.0
2016-Jun-21 20:31N 35°39' E 139°46'0 0.0
2016-Jun-21 19:31N 35°39' E 139°46'0 0.0
2016-Jun-21 18:28N 35°39' E 139°46'0 0.0
2016-Jun-21 17:31N 35°39' E 139°46'0 0.0
2016-Jun-21 16:31N 35°39' E 139°46'0 0.0
2016-Jun-21 15:31N 35°39' E 139°46'0 0.0
2016-Jun-21 14:31N 35°39' E 139°46'0 0.0
2016-Jun-21 13:28N 35°39' E 139°46'0 0.0
2016-Jun-21 12:31N 35°39' E 139°46'0 0.0
2016-Jun-21 11:22N 35°39' E 139°46'0 0.0
2016-Jun-21 10:28N 35°39' E 139°46'0 0.0
2016-Jun-21 09:28N 35°39' E 139°46'0 0.0
2016-Jun-21 08:28N 35°39' E 139°46'0 0.0
2016-Jun-21 07:28N 35°39' E 139°46'0 0.0
2016-Jun-21 06:31N 35°39' E 139°46'0 0.0
2016-Jun-21 04:31N 35°39' E 139°46'0 0.0
2016-Jun-21 03:31N 35°39' E 139°46'0 0.0
2016-Jun-21 02:28N 35°39' E 139°46'0 0.0
2016-Jun-21 01:31N 35°39' E 139°46'0 0.0
2016-Jun-21 00:28N 35°39' E 139°46'0 0.0
2016-Jun-20 23:31N 35°39' E 139°46'2 2.0
2016-Jun-20 22:31N 35°37' E 139°46'2 2.6
2016-Jun-20 21:33N 35°35' E 139°48'2 1.9
2016-Jun-20 20:33N 35°37' E 139°47'0 0.0
2016-Jun-20 19:33N 35°37' E 139°47'1 0.7
2016-Jun-20 18:33N 35°37' E 139°46'2 2.2
2016-Jun-20 17:33N 35°39' E 139°46'0 0.0
2016-Jun-20 16:27N 35°39' E 139°46'0 0.0
2016-Jun-20 15:33N 35°39' E 139°46'0 0.0
2016-Jun-20 14:30N 35°39' E 139°46'0 0.0
2016-Jun-20 13:33N 35°39' E 139°46'0 0.0
2016-Jun-20 12:33N 35°39' E 139°46'0 0.0
2016-Jun-20 11:30N 35°39' E 139°46'0 0.0
2016-Jun-20 10:33N 35°39' E 139°46'0 0.0
2016-Jun-20 09:30N 35°39' E 139°46'0 0.0
2016-Jun-20 08:33N 35°39' E 139°46'0 0.0
2016-Jun-20 07:30N 35°39' E 139°46'0 0.0
2016-Jun-20 06:33N 35°39' E 139°46'0 0.0
2016-Jun-20 05:33N 35°39' E 139°46'0 0.0
2016-Jun-20 04:33N 35°39' E 139°46'0 0.0
2016-Jun-20 03:33N 35°39' E 139°46'0 0.0
2016-Jun-20 02:33N 35°39' E 139°46'0 0.0
2016-Jun-20 01:33N 35°39' E 139°46'0 0.0
2016-Jun-20 00:33N 35°39' E 139°46'0 0.0
2016-Jun-19 23:27N 35°39' E 139°46'3 2.8
2016-Jun-19 22:32N 35°36' E 139°46'0 0.3
2016-Jun-19 21:33N 35°36' E 139°47'2 2.4
2016-Jun-19 20:33N 35°39' E 139°46'0 0.0
2016-Jun-19 19:33N 35°39' E 139°46'0 0.0
2016-Jun-19 18:33N 35°39' E 139°46'0 0.0
2016-Jun-19 17:33N 35°39' E 139°46'0 0.0
2016-Jun-19 16:33N 35°39' E 139°46'0 0.0
2016-Jun-19 15:33N 35°39' E 139°46'0 0.0
2016-Jun-19 14:33N 35°39' E 139°46'0 0.0
2016-Jun-19 13:33N 35°39' E 139°46'0 0.0
2016-Jun-19 12:33N 35°39' E 139°46'0 0.0
2016-Jun-19 11:33N 35°39' E 139°46'0 0.0
2016-Jun-19 10:33N 35°39' E 139°46'0 0.0
2016-Jun-19 09:33N 35°39' E 139°46'0 0.0
2016-Jun-19 08:33N 35°39' E 139°46'0 0.0
2016-Jun-19 07:33N 35°39' E 139°46'0 0.0
2016-Jun-19 06:33N 35°39' E 139°46'0 0.0
2016-Jun-19 05:33N 35°39' E 139°46'8 8.1
2016-Jun-19 04:34N 35°31' E 139°48'2 2.1
2016-Jun-19 03:33N 35°33' E 139°50'4 3.6
2016-Jun-19 02:31N 35°35' E 139°47'1 1.4
2016-Jun-19 01:34N 35°37' E 139°46'2 2.2
2016-Jun-19 00:33N 35°39' E 139°46'0 0.0
2016-Jun-18 23:33N 35°39' E 139°46'0 0.0
2016-Jun-18 22:33N 35°39' E 139°46'0 0.0
2016-Jun-18 21:33N 35°39' E 139°46'0 0.0
2016-Jun-18 20:33N 35°39' E 139°46'0 0.0
2016-Jun-18 19:33N 35°39' E 139°46'0 0.0
2016-Jun-18 18:33N 35°39' E 139°46'0 0.0
2016-Jun-18 17:33N 35°39' E 139°46'0 0.0
2016-Jun-18 16:33N 35°39' E 139°46'0 0.0
2016-Jun-18 15:33N 35°39' E 139°46'0 0.0
2016-Jun-18 14:33N 35°39' E 139°46'0 0.0
2016-Jun-18 13:33N 35°39' E 139°46'0 0.0
2016-Jun-18 12:33N 35°39' E 139°46'0 0.0
2016-Jun-18 11:33N 35°39' E 139°46'0 0.0
2016-Jun-18 10:33N 35°39' E 139°46'3 3.0
2016-Jun-18 09:32N 35°36' E 139°46'2 2.2
2016-Jun-18 08:34N 35°35' E 139°48'2 2.2
2016-Jun-18 07:33N 35°36' E 139°47'1 0.7
2016-Jun-18 06:33N 35°37' E 139°46'2 2.0
2016-Jun-18 05:32N 35°39' E 139°46'0 0.0
2016-Jun-18 04:32N 35°39' E 139°46'0 0.0
2016-Jun-18 03:32N 35°39' E 139°46'0 0.0
2016-Jun-18 02:32N 35°39' E 139°46'0 0.0
2016-Jun-18 01:26N 35°39' E 139°46'0 0.0
2016-Jun-18 00:32N 35°39' E 139°46'0 0.0
2016-Jun-17 23:32N 35°39' E 139°46'3 2.9
2016-Jun-17 22:31N 35°36' E 139°46'2 1.6
2016-Jun-17 21:34N 35°35' E 139°48'4 3.9
2016-Jun-17 20:30N 35°39' E 139°46'0 0.0
2016-Jun-17 19:33N 35°39' E 139°46'0 0.0
2016-Jun-17 18:33N 35°39' E 139°46'0 0.0
2016-Jun-17 17:33N 35°39' E 139°46'0 0.0
2016-Jun-17 16:33N 35°39' E 139°46'0 0.0
2016-Jun-17 15:33N 35°39' E 139°46'0 0.0
2016-Jun-17 14:33N 35°39' E 139°46'0 0.0
2016-Jun-17 13:33N 35°39' E 139°46'0 0.0
2016-Jun-17 12:33N 35°39' E 139°46'0 0.0
2016-Jun-17 11:33N 35°39' E 139°46'0 0.0
2016-Jun-17 10:33N 35°39' E 139°46'0 0.0
2016-Jun-17 09:33N 35°39' E 139°46'0 0.0
2016-Jun-17 08:33N 35°39' E 139°46'0 0.0
2016-Jun-17 07:33N 35°39' E 139°46'0 0.0
2016-Jun-17 06:30N 35°39' E 139°46'0 0.0
2016-Jun-17 05:33N 35°39' E 139°46'0 0.0
2016-Jun-17 04:33N 35°39' E 139°46'0 0.0
2016-Jun-17 03:33N 35°39' E 139°46'0 0.0
2016-Jun-17 02:30N 35°39' E 139°46'0 0.0
2016-Jun-17 01:30N 35°39' E 139°46'0 0.0
2016-Jun-17 00:33N 35°39' E 139°46'0 0.0
2016-Jun-16 23:33N 35°39' E 139°46'2 1.6
2016-Jun-16 22:33N 35°37' E 139°46'3 3.3
2016-Jun-16 21:34N 35°35' E 139°48'2 2.3
2016-Jun-16 20:34N 35°37' E 139°47'2 2.4
2016-Jun-16 19:33N 35°39' E 139°46'0 0.0
2016-Jun-16 18:33N 35°39' E 139°46'0 0.0
2016-Jun-16 17:30N 35°39' E 139°46'0 0.0
2016-Jun-16 16:33N 35°39' E 139°46'0 0.0
2016-Jun-16 15:33N 35°39' E 139°46'0 0.0
2016-Jun-16 14:33N 35°39' E 139°46'0 0.0
2016-Jun-16 13:33N 35°39' E 139°46'0 0.0
2016-Jun-16 12:33N 35°39' E 139°46'0 0.0
2016-Jun-16 11:33N 35°39' E 139°46'0 0.0
2016-Jun-16 10:33N 35°39' E 139°46'0 0.0
2016-Jun-16 09:33N 35°39' E 139°46'0 0.0
2016-Jun-16 08:33N 35°39' E 139°46'0 0.0
2016-Jun-16 07:33N 35°39' E 139°46'0 0.0
2016-Jun-16 06:33N 35°39' E 139°46'0 0.0
2016-Jun-16 05:33N 35°39' E 139°46'0 0.0
2016-Jun-16 04:33N 35°39' E 139°46'0 0.0
2016-Jun-16 03:33N 35°39' E 139°46'0 0.0
2016-Jun-16 02:33N 35°39' E 139°46'0 0.0
2016-Jun-16 01:33N 35°39' E 139°46'0 0.0
2016-Jun-16 00:33N 35°39' E 139°46'0 0.0
2016-Jun-15 23:30N 35°39' E 139°46'0 0.0
2016-Jun-15 22:33N 35°39' E 139°46'0 0.0
2016-Jun-15 21:33N 35°39' E 139°46'0 0.0
2016-Jun-15 20:33N 35°39' E 139°46'0 0.0
2016-Jun-15 19:33N 35°39' E 139°46'0 0.0
2016-Jun-15 18:30N 35°39' E 139°46'0 0.0
2016-Jun-15 17:30N 35°39' E 139°46'0 0.0
2016-Jun-15 16:33N 35°39' E 139°46'0 0.0
2016-Jun-15 15:33N 35°39' E 139°46'0 0.0
2016-Jun-15 14:33N 35°39' E 139°46'0 0.0
2016-Jun-15 13:33N 35°39' E 139°46'0 0.0
2016-Jun-15 12:33N 35°39' E 139°46'0 0.0
2016-Jun-15 11:33N 35°39' E 139°46'  
Track history (hours):
 
Tides and Currents Weather Stations Pressure Air Temp Water Temp Dewpoint Dewpoint Depression Visibility Wind Speed Wind Dir Waves Ship Positions

Fuji Maru

Last reported at 2016-Jun-25 11:28 UTC. Time now 2016-Jun-25 12:32 UTC.
Position N 35°39' E 139°46'.

Length 38 m; draft 4.4 m.

Type: Tug. MMSI: 431001102.

Date/timePositionNaut miles runAvg speedWind from/ knotsBaromVisibWave heightAir tempDewpointWater temp
2016-Jun-25 11:28N 35°39' E 139°46'0 0.0
2016-Jun-25 10:31N 35°39' E 139°46'0 0.0
2016-Jun-25 09:28N 35°39' E 139°46'0 0.0
2016-Jun-25 08:22N 35°39' E 139°46'0 0.0
2016-Jun-25 07:31N 35°39' E 139°46'0 0.0
2016-Jun-25 06:28N 35°39' E 139°46'1 1.2
2016-Jun-25 05:33N 35°38' E 139°46'1 0.9
2016-Jun-25 04:23N 35°39' E 139°46'0 0.0
2016-Jun-25 03:26N 35°39' E 139°46'3 3.4
2016-Jun-25 02:32N 35°36' E 139°48'1 0.9
2016-Jun-25 01:33N 35°36' E 139°47'3 3.3
2016-Jun-25 00:33N 35°39' E 139°46'0 0.0
2016-Jun-24 23:30N 35°39' E 139°46'0 0.0
2016-Jun-24 22:33N 35°39' E 139°46'0 0.0
2016-Jun-24 21:15N 35°39' E 139°46'0 0.0
2016-Jun-24 20:33N 35°39' E 139°46'0 0.0
2016-Jun-24 19:33N 35°39' E 139°46'0 0.0
2016-Jun-24 18:33N 35°39' E 139°46'0 0.0
2016-Jun-24 17:33N 35°39' E 139°46'0 0.0
2016-Jun-24 16:33N 35°39' E 139°46'0 0.0
2016-Jun-24 15:33N 35°39' E 139°46'0 0.0
2016-Jun-24 14:33N 35°39' E 139°46'0 0.0
2016-Jun-24 13:30N 35°39' E 139°46'0 0.4
2016-Jun-24 12:33N 35°38' E 139°46'2 1.9
2016-Jun-24 11:33N 35°37' E 139°47'1 1.0
2016-Jun-24 10:31N 35°36' E 139°46'1 0.7
2016-Jun-24 09:33N 35°36' E 139°46'3 2.3
2016-Jun-24 08:26N 35°39' E 139°46'0 0.0
2016-Jun-24 07:32N 35°39' E 139°46'0 0.0
2016-Jun-24 04:32N 35°39' E 139°46'0 0.0
2016-Jun-24 03:32N 35°39' E 139°46'0 0.0
2016-Jun-24 02:23N 35°39' E 139°46'0 0.0
2016-Jun-24 01:32N 35°39' E 139°46'0 0.0
2016-Jun-24 00:32N 35°39' E 139°46'0 0.0
2016-Jun-23 23:32N 35°39' E 139°46'0 0.0
2016-Jun-23 22:32N 35°39' E 139°46'0 0.0
2016-Jun-23 21:32N 35°39' E 139°46'0 0.0
2016-Jun-23 20:29N 35°39' E 139°46'0 0.0
2016-Jun-23 19:32N 35°39' E 139°46'0 0.0
2016-Jun-23 18:32N 35°39' E 139°46'0 0.0
2016-Jun-23 17:32N 35°39' E 139°46'0 0.0
2016-Jun-23 16:32N 35°39' E 139°46'0 0.0
2016-Jun-23 15:32N 35°39' E 139°46'0 0.0
2016-Jun-23 14:32N 35°39' E 139°46'0 0.0
2016-Jun-23 13:29N 35°39' E 139°46'0 0.0
2016-Jun-23 12:32N 35°39' E 139°46'0 0.0
2016-Jun-23 11:32N 35°39' E 139°46'0 0.0
2016-Jun-23 10:32N 35°39' E 139°46'3 3.3
2016-Jun-23 09:33N 35°36' E 139°47'3 2.9
2016-Jun-23 08:33N 35°34' E 139°49'6 5.8
2016-Jun-23 07:32N 35°39' E 139°46'0 0.0
2016-Jun-23 05:29N 35°39' E 139°46'0 0.0
2016-Jun-23 04:32N 35°39' E 139°46'0 0.0
2016-Jun-23 03:32N 35°39' E 139°46'0 0.0
2016-Jun-23 02:32N 35°39' E 139°46'0 0.0
2016-Jun-23 01:32N 35°39' E 139°46'0 0.0
2016-Jun-23 00:32N 35°39' E 139°46'0 0.0
2016-Jun-22 23:32N 35°39' E 139°46'2 2.2
2016-Jun-22 22:33N 35°37' E 139°46'2 1.5
2016-Jun-22 21:33N 35°35' E 139°47'1 1.0
2016-Jun-22 20:34N 35°36' E 139°47'0 0.3
2016-Jun-22 19:31N 35°36' E 139°46'2 2.4
2016-Jun-22 18:31N 35°39' E 139°46'0 0.0
2016-Jun-22 17:28N 35°39' E 139°46'0 0.0
2016-Jun-22 16:31N 35°39' E 139°46'0 0.0
2016-Jun-22 15:31N 35°39' E 139°46'0 0.0
2016-Jun-22 14:28N 35°39' E 139°46'0 0.0
2016-Jun-22 13:31N 35°39' E 139°46'0 0.0
2016-Jun-22 12:31N 35°39' E 139°46'0 0.0
2016-Jun-22 11:31N 35°39' E 139°46'0 0.0
2016-Jun-22 10:25N 35°39' E 139°46'0 0.0
2016-Jun-22 09:22N 35°39' E 139°46'0 0.0
2016-Jun-22 08:31N 35°39' E 139°46'0 0.0
2016-Jun-22 07:31N 35°39' E 139°46'0 0.0
2016-Jun-22 06:31N 35°39' E 139°46'0 0.0
2016-Jun-22 05:31N 35°39' E 139°46'0 0.0
2016-Jun-22 04:31N 35°39' E 139°46'0 0.0
2016-Jun-22 03:31N 35°39' E 139°46'0 0.0
2016-Jun-22 02:31N 35°39' E 139°46'0 0.0
2016-Jun-22 01:31N 35°39' E 139°46'0 0.0
2016-Jun-22 00:31N 35°39' E 139°46'0 0.0
2016-Jun-21 23:31N 35°39' E 139°46'0 0.0
2016-Jun-21 22:31N 35°39' E 139°46'0 0.0
2016-Jun-21 21:31N 35°39' E 139°46'0 0.0
2016-Jun-21 20:31N 35°39' E 139°46'0 0.0
2016-Jun-21 19:31N 35°39' E 139°46'0 0.0
2016-Jun-21 18:28N 35°39' E 139°46'0 0.0
2016-Jun-21 17:31N 35°39' E 139°46'0 0.0
2016-Jun-21 16:31N 35°39' E 139°46'0 0.0
2016-Jun-21 15:31N 35°39' E 139°46'0 0.0
2016-Jun-21 14:31N 35°39' E 139°46'0 0.0
2016-Jun-21 13:28N 35°39' E 139°46'0 0.0
2016-Jun-21 12:31N 35°39' E 139°46'0 0.0
2016-Jun-21 11:22N 35°39' E 139°46'0 0.0
2016-Jun-21 10:28N 35°39' E 139°46'0 0.0
2016-Jun-21 09:28N 35°39' E 139°46'0 0.0
2016-Jun-21 08:28N 35°39' E 139°46'0 0.0
2016-Jun-21 07:28N 35°39' E 139°46'0 0.0
2016-Jun-21 06:31N 35°39' E 139°46'0 0.0
2016-Jun-21 04:31N 35°39' E 139°46'0 0.0
2016-Jun-21 03:31N 35°39' E 139°46'0 0.0
2016-Jun-21 02:28N 35°39' E 139°46'0 0.0
2016-Jun-21 01:31N 35°39' E 139°46'0 0.0
2016-Jun-21 00:28N 35°39' E 139°46'0 0.0
2016-Jun-20 23:31N 35°39' E 139°46'2 2.0
2016-Jun-20 22:31N 35°37' E 139°46'2 2.6
2016-Jun-20 21:33N 35°35' E 139°48'2 1.9
2016-Jun-20 20:33N 35°37' E 139°47'0 0.0
2016-Jun-20 19:33N 35°37' E 139°47'1 0.7
2016-Jun-20 18:33N 35°37' E 139°46'2 2.2
2016-Jun-20 17:33N 35°39' E 139°46'0 0.0
2016-Jun-20 16:27N 35°39' E 139°46'0 0.0
2016-Jun-20 15:33N 35°39' E 139°46'0 0.0
2016-Jun-20 14:30N 35°39' E 139°46'0 0.0
2016-Jun-20 13:33N 35°39' E 139°46'0 0.0
2016-Jun-20 12:33N 35°39' E 139°46'0 0.0
2016-Jun-20 11:30N 35°39' E 139°46'0 0.0
2016-Jun-20 10:33N 35°39' E 139°46'0 0.0
2016-Jun-20 09:30N 35°39' E 139°46'0 0.0
2016-Jun-20 08:33N 35°39' E 139°46'0 0.0
2016-Jun-20 07:30N 35°39' E 139°46'0 0.0
2016-Jun-20 06:33N 35°39' E 139°46'0 0.0
2016-Jun-20 05:33N 35°39' E 139°46'0 0.0
2016-Jun-20 04:33N 35°39' E 139°46'0 0.0
2016-Jun-20 03:33N 35°39' E 139°46'0 0.0
2016-Jun-20 02:33N 35°39' E 139°46'0 0.0
2016-Jun-20 01:33N 35°39' E 139°46'0 0.0
2016-Jun-20 00:33N 35°39' E 139°46'0 0.0
2016-Jun-19 23:27N 35°39' E 139°46'3 2.8
2016-Jun-19 22:32N 35°36' E 139°46'0 0.3
2016-Jun-19 21:33N 35°36' E 139°47'2 2.4
2016-Jun-19 20:33N 35°39' E 139°46'0 0.0
2016-Jun-19 19:33N 35°39' E 139°46'0 0.0
2016-Jun-19 18:33N 35°39' E 139°46'0 0.0
2016-Jun-19 17:33N 35°39' E 139°46'0 0.0
2016-Jun-19 16:33N 35°39' E 139°46'0 0.0
2016-Jun-19 15:33N 35°39' E 139°46'0 0.0
2016-Jun-19 14:33N 35°39' E 139°46'0 0.0
2016-Jun-19 13:33N 35°39' E 139°46'0 0.0
2016-Jun-19 12:33N 35°39' E 139°46'0 0.0
2016-Jun-19 11:33N 35°39' E 139°46'0 0.0
2016-Jun-19 10:33N 35°39' E 139°46'0 0.0
2016-Jun-19 09:33N 35°39' E 139°46'0 0.0
2016-Jun-19 08:33N 35°39' E 139°46'0 0.0
2016-Jun-19 07:33N 35°39' E 139°46'0 0.0
2016-Jun-19 06:33N 35°39' E 139°46'0 0.0
2016-Jun-19 05:33N 35°39' E 139°46'8 8.1
2016-Jun-19 04:34N 35°31' E 139°48'2 2.1
2016-Jun-19 03:33N 35°33' E 139°50'4 3.6
2016-Jun-19 02:31N 35°35' E 139°47'1 1.4
2016-Jun-19 01:34N 35°37' E 139°46'2 2.2
2016-Jun-19 00:33N 35°39' E 139°46'0 0.0
2016-Jun-18 23:33N 35°39' E 139°46'0 0.0
2016-Jun-18 22:33N 35°39' E 139°46'0 0.0
2016-Jun-18 21:33N 35°39' E 139°46'0 0.0
2016-Jun-18 20:33N 35°39' E 139°46'0 0.0
2016-Jun-18 19:33N 35°39' E 139°46'0 0.0
2016-Jun-18 18:33N 35°39' E 139°46'0 0.0
2016-Jun-18 17:33N 35°39' E 139°46'0 0.0
2016-Jun-18 16:33N 35°39' E 139°46'0 0.0
2016-Jun-18 15:33N 35°39' E 139°46'0 0.0
2016-Jun-18 14:33N 35°39' E 139°46'0 0.0
2016-Jun-18 13:33N 35°39' E 139°46'0 0.0
2016-Jun-18 12:33N 35°39' E 139°46'0 0.0
2016-Jun-18 11:33N 35°39' E 139°46'0 0.0
2016-Jun-18 10:33N 35°39' E 139°46'3 3.0
2016-Jun-18 09:32N 35°36' E 139°46'2 2.2
2016-Jun-18 08:34N 35°35' E 139°48'2 2.2
2016-Jun-18 07:33N 35°36' E 139°47'1 0.7
2016-Jun-18 06:33N 35°37' E 139°46'2 2.0
2016-Jun-18 05:32N 35°39' E 139°46'0 0.0
2016-Jun-18 04:32N 35°39' E 139°46'0 0.0
2016-Jun-18 03:32N 35°39' E 139°46'0 0.0
2016-Jun-18 02:32N 35°39' E 139°46'0 0.0
2016-Jun-18 01:26N 35°39' E 139°46'0 0.0
2016-Jun-18 00:32N 35°39' E 139°46'0 0.0
2016-Jun-17 23:32N 35°39' E 139°46'3 2.9
2016-Jun-17 22:31N 35°36' E 139°46'2 1.6
2016-Jun-17 21:34N 35°35' E 139°48'4 3.9
2016-Jun-17 20:30N 35°39' E 139°46'0 0.0
2016-Jun-17 19:33N 35°39' E 139°46'0 0.0
2016-Jun-17 18:33N 35°39' E 139°46'0 0.0
2016-Jun-17 17:33N 35°39' E 139°46'0 0.0
2016-Jun-17 16:33N 35°39' E 139°46'0 0.0
2016-Jun-17 15:33N 35°39' E 139°46'0 0.0
2016-Jun-17 14:33N 35°39' E 139°46'0 0.0
2016-Jun-17 13:33N 35°39' E 139°46'0 0.0
2016-Jun-17 12:33N 35°39' E 139°46'0 0.0
2016-Jun-17 11:33N 35°39' E 139°46'0 0.0
2016-Jun-17 10:33N 35°39' E 139°46'0 0.0
2016-Jun-17 09:33N 35°39' E 139°46'0 0.0
2016-Jun-17 08:33N 35°39' E 139°46'0 0.0
2016-Jun-17 07:33N 35°39' E 139°46'0 0.0
2016-Jun-17 06:30N 35°39' E 139°46'0 0.0
2016-Jun-17 05:33N 35°39' E 139°46'0 0.0
2016-Jun-17 04:33N 35°39' E 139°46'0 0.0
2016-Jun-17 03:33N 35°39' E 139°46'0 0.0
2016-Jun-17 02:30N 35°39' E 139°46'0 0.0
2016-Jun-17 01:30N 35°39' E 139°46'0 0.0
2016-Jun-17 00:33N 35°39' E 139°46'0 0.0
2016-Jun-16 23:33N 35°39' E 139°46'2 1.6
2016-Jun-16 22:33N 35°37' E 139°46'3 3.3
2016-Jun-16 21:34N 35°35' E 139°48'2 2.3
2016-Jun-16 20:34N 35°37' E 139°47'2 2.4
2016-Jun-16 19:33N 35°39' E 139°46'0 0.0
2016-Jun-16 18:33N 35°39' E 139°46'0 0.0
2016-Jun-16 17:30N 35°39' E 139°46'0 0.0
2016-Jun-16 16:33N 35°39' E 139°46'0 0.0
2016-Jun-16 15:33N 35°39' E 139°46'0 0.0
2016-Jun-16 14:33N 35°39' E 139°46'0 0.0
2016-Jun-16 13:33N 35°39' E 139°46'0 0.0
2016-Jun-16 12:33N 35°39' E 139°46'0 0.0
2016-Jun-16 11:33N 35°39' E 139°46'0 0.0
2016-Jun-16 10:33N 35°39' E 139°46'0 0.0
2016-Jun-16 09:33N 35°39' E 139°46'0 0.0
2016-Jun-16 08:33N 35°39' E 139°46'0 0.0
2016-Jun-16 07:33N 35°39' E 139°46'0 0.0
2016-Jun-16 06:33N 35°39' E 139°46'0 0.0
2016-Jun-16 05:33N 35°39' E 139°46'0 0.0
2016-Jun-16 04:33N 35°39' E 139°46'0 0.0
2016-Jun-16 03:33N 35°39' E 139°46'0 0.0
2016-Jun-16 02:33N 35°39' E 139°46'0 0.0
2016-Jun-16 01:33N 35°39' E 139°46'0 0.0
2016-Jun-16 00:33N 35°39' E 139°46'0 0.0
2016-Jun-15 23:30N 35°39' E 139°46'0 0.0
2016-Jun-15 22:33N 35°39' E 139°46'0 0.0
2016-Jun-15 21:33N 35°39' E 139°46'0 0.0
2016-Jun-15 20:33N 35°39' E 139°46'0 0.0
2016-Jun-15 19:33N 35°39' E 139°46'0 0.0
2016-Jun-15 18:30N 35°39' E 139°46'0 0.0
2016-Jun-15 17:30N 35°39' E 139°46'0 0.0
2016-Jun-15 16:33N 35°39' E 139°46'0 0.0
2016-Jun-15 15:33N 35°39' E 139°46'0 0.0
2016-Jun-15 14:33N 35°39' E 139°46'0 0.0
2016-Jun-15 13:33N 35°39' E 139°46'0 0.0
2016-Jun-15 12:33N 35°39' E 139°46'0 0.0
2016-Jun-15 11:33N 35°39' E 139°46'  

Dump ship's entire track history